sensor_id;sensor_type;location;lat;lon;timestamp;P1;durP1;ratioP1;P2;durP2;ratioP2
6928;SDS011;3504;52.616;13.238;2023-07-08T00:03:48;7.25;;;6.55;;
6928;SDS011;3504;52.616;13.238;2023-07-08T00:08:51;7.40;;;6.20;;
6928;SDS011;3504;52.616;13.238;2023-07-08T00:13:52;9.90;;;7.53;;
6928;SDS011;3504;52.616;13.238;2023-07-08T00:18:52;7.85;;;6.68;;
6928;SDS011;3504;52.616;13.238;2023-07-08T00:23:53;7.32;;;6.63;;
6928;SDS011;3504;52.616;13.238;2023-07-08T00:28:55;7.57;;;6.78;;
6928;SDS011;3504;52.616;13.238;2023-07-08T00:33:56;8.50;;;6.57;;
6928;SDS011;3504;52.616;13.238;2023-07-08T00:38:57;6.77;;;6.07;;
6928;SDS011;3504;52.616;13.238;2023-07-08T00:43:58;7.03;;;6.30;;
6928;SDS011;3504;52.616;13.238;2023-07-08T00:49:03;10.05;;;7.47;;
6928;SDS011;3504;52.616;13.238;2023-07-08T00:54:13;8.10;;;6.60;;
6928;SDS011;3504;52.616;13.238;2023-07-08T00:59:18;8.98;;;7.35;;
6928;SDS011;3504;52.616;13.238;2023-07-08T01:04:58;8.32;;;7.43;;
6928;SDS011;3504;52.616;13.238;2023-07-08T01:10:08;9.13;;;7.20;;
6928;SDS011;3504;52.616;13.238;2023-07-08T01:15:13;8.33;;;7.00;;
6928;SDS011;3504;52.616;13.238;2023-07-08T01:20:14;7.90;;;7.10;;
6928;SDS011;3504;52.616;13.238;2023-07-08T01:25:15;7.90;;;7.10;;
6928;SDS011;3504;52.616;13.238;2023-07-08T01:30:16;9.23;;;7.00;;
6928;SDS011;3504;52.616;13.238;2023-07-08T01:35:17;7.53;;;6.83;;
6928;SDS011;3504;52.616;13.238;2023-07-08T01:45:22;7.50;;;6.80;;
6928;SDS011;3504;52.616;13.238;2023-07-08T01:50:26;8.10;;;6.60;;
6928;SDS011;3504;52.616;13.238;2023-07-08T01:55:29;7.90;;;7.10;;
6928;SDS011;3504;52.616;13.238;2023-07-08T02:00:30;7.50;;;6.70;;
6928;SDS011;3504;52.616;13.238;2023-07-08T02:05:31;7.70;;;7.00;;
6928;SDS011;3504;52.616;13.238;2023-07-08T02:10:36;7.93;;;6.57;;
6928;SDS011;3504;52.616;13.238;2023-07-08T02:15:40;7.60;;;6.90;;
6928;SDS011;3504;52.616;13.238;2023-07-08T02:20:42;8.10;;;7.10;;
6928;SDS011;3504;52.616;13.238;2023-07-08T02:25:50;7.00;;;6.40;;
6928;SDS011;3504;52.616;13.238;2023-07-08T02:30:52;7.40;;;6.73;;
6928;SDS011;3504;52.616;13.238;2023-07-08T02:35:53;7.03;;;6.33;;
6928;SDS011;3504;52.616;13.238;2023-07-08T02:40:54;7.90;;;7.20;;
6928;SDS011;3504;52.616;13.238;2023-07-08T02:45:54;7.60;;;6.80;;
6928;SDS011;3504;52.616;13.238;2023-07-08T02:50:58;8.17;;;6.93;;
6928;SDS011;3504;52.616;13.238;2023-07-08T02:56:03;8.40;;;7.60;;
6928;SDS011;3504;52.616;13.238;2023-07-08T03:01:04;8.47;;;6.60;;
6928;SDS011;3504;52.616;13.238;2023-07-08T03:06:06;7.67;;;6.87;;
6928;SDS011;3504;52.616;13.238;2023-07-08T03:11:08;8.23;;;7.53;;
6928;SDS011;3504;52.616;13.238;2023-07-08T03:16:09;9.03;;;7.80;;
6928;SDS011;3504;52.616;13.238;2023-07-08T03:21:13;9.10;;;8.20;;
6928;SDS011;3504;52.616;13.238;2023-07-08T03:26:19;8.87;;;7.87;;
6928;SDS011;3504;52.616;13.238;2023-07-08T03:31:25;9.20;;;8.30;;
6928;SDS011;3504;52.616;13.238;2023-07-08T03:36:25;8.20;;;7.40;;
6928;SDS011;3504;52.616;13.238;2023-07-08T03:41:26;8.50;;;7.80;;
6928;SDS011;3504;52.616;13.238;2023-07-08T03:46:28;8.83;;;8.00;;
6928;SDS011;3504;52.616;13.238;2023-07-08T03:51:30;8.17;;;7.47;;
6928;SDS011;3504;52.616;13.238;2023-07-08T03:56:33;10.07;;;7.90;;
6928;SDS011;3504;52.616;13.238;2023-07-08T04:01:35;9.53;;;8.10;;
6928;SDS011;3504;52.616;13.238;2023-07-08T04:06:38;9.40;;;8.50;;
6928;SDS011;3504;52.616;13.238;2023-07-08T04:11:40;10.23;;;8.47;;
6928;SDS011;3504;52.616;13.238;2023-07-08T04:22:07;9.03;;;8.13;;
6928;SDS011;3504;52.616;13.238;2023-07-08T04:27:11;10.47;;;8.47;;
6928;SDS011;3504;52.616;13.238;2023-07-08T04:32:15;9.00;;;8.00;;
6928;SDS011;3504;52.616;13.238;2023-07-08T04:37:16;9.23;;;8.33;;
6928;SDS011;3504;52.616;13.238;2023-07-08T04:42:16;9.70;;;8.90;;
6928;SDS011;3504;52.616;13.238;2023-07-08T04:47:17;10.20;;;9.20;;
6928;SDS011;3504;52.616;13.238;2023-07-08T04:52:20;10.57;;;9.30;;
6928;SDS011;3504;52.616;13.238;2023-07-08T04:57:20;9.53;;;8.67;;
6928;SDS011;3504;52.616;13.238;2023-07-08T05:02:21;10.03;;;9.03;;
6928;SDS011;3504;52.616;13.238;2023-07-08T05:07:22;10.97;;;9.03;;
6928;SDS011;3504;52.616;13.238;2023-07-08T05:12:22;10.53;;;8.93;;
6928;SDS011;3504;52.616;13.238;2023-07-08T05:17:23;9.87;;;9.00;;
6928;SDS011;3504;52.616;13.238;2023-07-08T05:22:25;10.30;;;9.23;;
6928;SDS011;3504;52.616;13.238;2023-07-08T05:27:25;9.73;;;8.83;;
6928;SDS011;3504;52.616;13.238;2023-07-08T05:32:26;12.00;;;9.23;;
6928;SDS011;3504;52.616;13.238;2023-07-08T05:37:27;9.47;;;8.50;;
6928;SDS011;3504;52.616;13.238;2023-07-08T05:42:29;9.20;;;8.40;;
6928;SDS011;3504;52.616;13.238;2023-07-08T05:47:30;9.23;;;8.15;;
6928;SDS011;3504;52.616;13.238;2023-07-08T05:52:30;10.88;;;8.30;;
6928;SDS011;3504;52.616;13.238;2023-07-08T05:57:31;9.27;;;8.48;;
6928;SDS011;3504;52.616;13.238;2023-07-08T06:02:31;8.20;;;7.07;;
6928;SDS011;3504;52.616;13.238;2023-07-08T06:07:32;9.70;;;6.97;;
6928;SDS011;3504;52.616;13.238;2023-07-08T06:12:32;7.63;;;6.22;;
6928;SDS011;3504;52.616;13.238;2023-07-08T06:17:33;6.90;;;6.20;;
6928;SDS011;3504;52.616;13.238;2023-07-08T06:22:36;6.75;;;6.10;;
6928;SDS011;3504;52.616;13.238;2023-07-08T06:27:36;6.90;;;6.20;;
6928;SDS011;3504;52.616;13.238;2023-07-08T06:32:37;7.07;;;6.18;;
6928;SDS011;3504;52.616;13.238;2023-07-08T06:37:37;8.73;;;6.13;;
6928;SDS011;3504;52.616;13.238;2023-07-08T06:42:38;8.57;;;5.90;;
6928;SDS011;3504;52.616;13.238;2023-07-08T06:47:45;6.03;;;5.53;;
6928;SDS011;3504;52.616;13.238;2023-07-08T06:52:46;7.03;;;5.90;;
6928;SDS011;3504;52.616;13.238;2023-07-08T06:57:46;7.75;;;6.03;;
6928;SDS011;3504;52.616;13.238;2023-07-08T07:02:47;5.75;;;5.25;;
6928;SDS011;3504;52.616;13.238;2023-07-08T07:07:47;6.38;;;5.35;;
6928;SDS011;3504;52.616;13.238;2023-07-08T07:12:48;7.78;;;5.00;;
6928;SDS011;3504;52.616;13.238;2023-07-08T07:17:48;4.70;;;4.30;;
6928;SDS011;3504;52.616;13.238;2023-07-08T07:22:52;5.57;;;4.80;;
6928;SDS011;3504;52.616;13.238;2023-07-08T07:27:53;5.28;;;4.78;;
6928;SDS011;3504;52.616;13.238;2023-07-08T07:32:53;5.38;;;4.97;;
6928;SDS011;3504;52.616;13.238;2023-07-08T07:37:54;5.10;;;4.60;;
6928;SDS011;3504;52.616;13.238;2023-07-08T07:42:54;5.00;;;4.50;;
6928;SDS011;3504;52.616;13.238;2023-07-08T07:47:55;5.40;;;4.90;;
6928;SDS011;3504;52.616;13.238;2023-07-08T07:52:55;5.10;;;4.13;;
6928;SDS011;3504;52.616;13.238;2023-07-08T07:57:56;4.93;;;4.43;;
6928;SDS011;3504;52.616;13.238;2023-07-08T08:02:56;5.05;;;4.18;;
6928;SDS011;3504;52.616;13.238;2023-07-08T08:07:57;4.38;;;3.65;;
6928;SDS011;3504;52.616;13.238;2023-07-08T08:12:57;5.05;;;4.03;;
6928;SDS011;3504;52.616;13.238;2023-07-08T08:17:58;4.10;;;3.78;;
6928;SDS011;3504;52.616;13.238;2023-07-08T08:22:58;6.15;;;4.05;;
6928;SDS011;3504;52.616;13.238;2023-07-08T08:27:59;5.88;;;3.63;;
6928;SDS011;3504;52.616;13.238;2023-07-08T08:32:59;3.95;;;3.55;;
6928;SDS011;3504;52.616;13.238;2023-07-08T08:38:00;5.90;;;3.50;;
6928;SDS011;3504;52.616;13.238;2023-07-08T08:43:04;5.57;;;3.80;;
6928;SDS011;3504;52.616;13.238;2023-07-08T08:48:13;4.47;;;3.70;;
6928;SDS011;3504;52.616;13.238;2023-07-08T08:53:17;4.45;;;3.10;;
6928;SDS011;3504;52.616;13.238;2023-07-08T08:58:27;5.10;;;3.60;;
6928;SDS011;3504;52.616;13.238;2023-07-08T09:03:42;3.65;;;3.35;;
6928;SDS011;3504;52.616;13.238;2023-07-08T09:09:04;5.10;;;3.42;;
6928;SDS011;3504;52.616;13.238;2023-07-08T09:14:20;3.67;;;3.25;;
6928;SDS011;3504;52.616;13.238;2023-07-08T09:19:32;4.40;;;3.08;;
6928;SDS011;3504;52.616;13.238;2023-07-08T09:24:44;5.82;;;2.53;;
6928;SDS011;3504;52.616;13.238;2023-07-08T09:29:53;3.72;;;2.80;;
6928;SDS011;3504;52.616;13.238;2023-07-08T09:35:04;3.55;;;2.30;;
6928;SDS011;3504;52.616;13.238;2023-07-08T09:40:15;2.85;;;2.45;;
6928;SDS011;3504;52.616;13.238;2023-07-08T09:45:19;3.00;;;2.78;;
6928;SDS011;3504;52.616;13.238;2023-07-08T09:50:28;2.58;;;2.20;;
6928;SDS011;3504;52.616;13.238;2023-07-08T09:55:31;3.67;;;3.17;;
6928;SDS011;3504;52.616;13.238;2023-07-08T10:00:38;4.45;;;3.20;;
6928;SDS011;3504;52.616;13.238;2023-07-08T10:05:41;4.72;;;3.28;;
6928;SDS011;3504;52.616;13.238;2023-07-08T10:10:43;3.78;;;3.25;;
6928;SDS011;3504;52.616;13.238;2023-07-08T10:15:47;5.22;;;2.90;;
6928;SDS011;3504;52.616;13.238;2023-07-08T10:26:34;3.90;;;3.00;;
6928;SDS011;3504;52.616;13.238;2023-07-08T10:31:41;3.53;;;3.05;;
6928;SDS011;3504;52.616;13.238;2023-07-08T10:42:19;3.83;;;3.45;;
6928;SDS011;3504;52.616;13.238;2023-07-08T11:09:47;3.97;;;3.15;;
6928;SDS011;3504;52.616;13.238;2023-07-08T11:15:02;4.60;;;3.40;;
6928;SDS011;3504;52.616;13.238;2023-07-08T11:20:18;3.40;;;3.20;;
6928;SDS011;3504;52.616;13.238;2023-07-08T11:25:24;4.20;;;3.22;;
6928;SDS011;3504;52.616;13.238;2023-07-08T11:30:28;5.32;;;3.35;;
6928;SDS011;3504;52.616;13.238;2023-07-08T11:35:33;4.13;;;3.75;;
6928;SDS011;3504;52.616;13.238;2023-07-08T11:40:57;5.05;;;4.20;;
6928;SDS011;3504;52.616;13.238;2023-07-08T11:46:05;3.65;;;3.38;;
6928;SDS011;3504;52.616;13.238;2023-07-08T11:51:07;4.20;;;3.70;;
6928;SDS011;3504;52.616;13.238;2023-07-08T12:01:23;3.88;;;3.58;;
6928;SDS011;3504;52.616;13.238;2023-07-08T12:11:33;4.53;;;3.97;;
6928;SDS011;3504;52.616;13.238;2023-07-08T12:16:35;4.80;;;3.83;;
6928;SDS011;3504;52.616;13.238;2023-07-08T12:21:36;9.18;;;3.83;;
6928;SDS011;3504;52.616;13.238;2023-07-08T12:26:36;7.22;;;3.83;;
6928;SDS011;3504;52.616;13.238;2023-07-08T12:31:37;4.90;;;3.83;;
6928;SDS011;3504;52.616;13.238;2023-07-08T12:36:38;5.05;;;3.47;;
6928;SDS011;3504;52.616;13.238;2023-07-08T12:41:39;4.03;;;3.72;;
6928;SDS011;3504;52.616;13.238;2023-07-08T12:46:40;5.13;;;4.60;;
6928;SDS011;3504;52.616;13.238;2023-07-08T12:51:41;5.20;;;4.10;;
6928;SDS011;3504;52.616;13.238;2023-07-08T12:56:45;4.63;;;4.20;;
6928;SDS011;3504;52.616;13.238;2023-07-08T13:01:47;4.38;;;3.97;;
6928;SDS011;3504;52.616;13.238;2023-07-08T13:06:49;4.70;;;4.30;;
6928;SDS011;3504;52.616;13.238;2023-07-08T13:11:50;4.68;;;4.13;;
6928;SDS011;3504;52.616;13.238;2023-07-08T13:16:52;3.90;;;3.47;;
6928;SDS011;3504;52.616;13.238;2023-07-08T13:21:53;4.68;;;4.22;;
6928;SDS011;3504;52.616;13.238;2023-07-08T13:26:55;5.45;;;3.80;;
6928;SDS011;3504;52.616;13.238;2023-07-08T13:31:56;4.32;;;3.92;;
6928;SDS011;3504;52.616;13.238;2023-07-08T13:37:08;5.18;;;4.07;;
6928;SDS011;3504;52.616;13.238;2023-07-08T13:42:16;4.38;;;3.97;;
6928;SDS011;3504;52.616;13.238;2023-07-08T13:47:23;4.55;;;4.00;;
6928;SDS011;3504;52.616;13.238;2023-07-08T13:52:28;4.40;;;4.07;;
6928;SDS011;3504;52.616;13.238;2023-07-08T13:57:32;4.75;;;3.70;;
6928;SDS011;3504;52.616;13.238;2023-07-08T14:02:38;5.22;;;3.85;;
6928;SDS011;3504;52.616;13.238;2023-07-08T14:07:44;5.18;;;4.45;;
6928;SDS011;3504;52.616;13.238;2023-07-08T14:12:45;4.00;;;3.70;;
6928;SDS011;3504;52.616;13.238;2023-07-08T14:17:45;4.20;;;3.75;;
6928;SDS011;3504;52.616;13.238;2023-07-08T14:22:46;4.93;;;4.22;;
6928;SDS011;3504;52.616;13.238;2023-07-08T14:27:46;3.90;;;3.60;;
6928;SDS011;3504;52.616;13.238;2023-07-08T14:32:47;4.43;;;4.03;;
6928;SDS011;3504;52.616;13.238;2023-07-08T14:37:48;5.78;;;4.28;;
6928;SDS011;3504;52.616;13.238;2023-07-08T14:42:49;4.65;;;4.25;;
6928;SDS011;3504;52.616;13.238;2023-07-08T14:47:55;4.25;;;3.85;;
6928;SDS011;3504;52.616;13.238;2023-07-08T14:52:56;4.53;;;4.05;;
6928;SDS011;3504;52.616;13.238;2023-07-08T14:57:57;5.93;;;4.18;;
6928;SDS011;3504;52.616;13.238;2023-07-08T15:02:57;5.47;;;4.30;;
6928;SDS011;3504;52.616;13.238;2023-07-08T15:07:58;5.80;;;4.68;;
6928;SDS011;3504;52.616;13.238;2023-07-08T15:12:59;4.82;;;4.22;;
6928;SDS011;3504;52.616;13.238;2023-07-08T15:18:00;4.97;;;3.95;;
6928;SDS011;3504;52.616;13.238;2023-07-08T15:23:04;4.40;;;4.00;;
6928;SDS011;3504;52.616;13.238;2023-07-08T15:28:05;5.40;;;3.97;;
6928;SDS011;3504;52.616;13.238;2023-07-08T15:33:07;5.75;;;4.43;;
6928;SDS011;3504;52.616;13.238;2023-07-08T15:38:09;4.55;;;4.15;;
6928;SDS011;3504;52.616;13.238;2023-07-08T15:43:11;4.88;;;3.92;;
6928;SDS011;3504;52.616;13.238;2023-07-08T15:48:15;4.60;;;4.20;;
6928;SDS011;3504;52.616;13.238;2023-07-08T15:53:17;4.80;;;4.18;;
6928;SDS011;3504;52.616;13.238;2023-07-08T15:58:26;5.40;;;4.35;;
6928;SDS011;3504;52.616;13.238;2023-07-08T16:03:30;3.70;;;3.40;;
6928;SDS011;3504;52.616;13.238;2023-07-08T16:08:34;4.32;;;3.92;;
6928;SDS011;3504;52.616;13.238;2023-07-08T16:13:35;5.30;;;4.55;;
6928;SDS011;3504;52.616;13.238;2023-07-08T16:18:37;4.55;;;4.15;;
6928;SDS011;3504;52.616;13.238;2023-07-08T16:23:38;4.50;;;4.05;;
6928;SDS011;3504;52.616;13.238;2023-07-08T16:28:40;4.60;;;4.20;;
6928;SDS011;3504;52.616;13.238;2023-07-08T16:33:47;4.65;;;3.95;;
6928;SDS011;3504;52.616;13.238;2023-07-08T16:38:48;4.13;;;3.78;;
6928;SDS011;3504;52.616;13.238;2023-07-08T16:43:49;4.75;;;4.22;;
6928;SDS011;3504;52.616;13.238;2023-07-08T16:48:53;8.65;;;3.83;;
6928;SDS011;3504;52.616;13.238;2023-07-08T16:53:58;5.05;;;4.55;;
6928;SDS011;3504;52.616;13.238;2023-07-08T16:59:12;4.55;;;4.15;;
6928;SDS011;3504;52.616;13.238;2023-07-08T17:04:14;6.50;;;5.68;;
6928;SDS011;3504;52.616;13.238;2023-07-08T17:09:15;5.03;;;4.55;;
6928;SDS011;3504;52.616;13.238;2023-07-08T17:14:15;6.13;;;5.28;;
6928;SDS011;3504;52.616;13.238;2023-07-08T17:19:16;7.65;;;6.95;;
6928;SDS011;3504;52.616;13.238;2023-07-08T17:24:16;5.53;;;4.40;;
6928;SDS011;3504;52.616;13.238;2023-07-08T17:29:17;4.03;;;3.70;;
6928;SDS011;3504;52.616;13.238;2023-07-08T17:34:19;5.72;;;4.88;;
6928;SDS011;3504;52.616;13.238;2023-07-08T17:39:22;4.60;;;3.63;;
6928;SDS011;3504;52.616;13.238;2023-07-08T17:44:22;4.13;;;3.75;;
6928;SDS011;3504;52.616;13.238;2023-07-08T17:49:23;6.80;;;4.55;;
6928;SDS011;3504;52.616;13.238;2023-07-08T17:54:26;8.30;;;7.50;;
6928;SDS011;3504;52.616;13.238;2023-07-08T17:59:30;9.98;;;9.07;;
6928;SDS011;3504;52.616;13.238;2023-07-08T18:04:31;6.82;;;4.53;;
6928;SDS011;3504;52.616;13.238;2023-07-08T18:09:32;6.75;;;5.32;;
6928;SDS011;3504;52.616;13.238;2023-07-08T18:14:33;8.70;;;7.07;;
6928;SDS011;3504;52.616;13.238;2023-07-08T18:19:33;7.47;;;4.30;;
6928;SDS011;3504;52.616;13.238;2023-07-08T18:24:34;6.05;;;4.20;;
6928;SDS011;3504;52.616;13.238;2023-07-08T18:29:34;6.60;;;4.05;;
6928;SDS011;3504;52.616;13.238;2023-07-08T18:34:35;4.97;;;4.30;;
6928;SDS011;3504;52.616;13.238;2023-07-08T18:39:36;6.15;;;4.18;;
6928;SDS011;3504;52.616;13.238;2023-07-08T18:44:37;6.95;;;4.38;;
6928;SDS011;3504;52.616;13.238;2023-07-08T18:49:38;5.50;;;3.72;;
6928;SDS011;3504;52.616;13.238;2023-07-08T18:54:38;4.60;;;3.80;;
6928;SDS011;3504;52.616;13.238;2023-07-08T18:59:39;4.75;;;3.22;;
6928;SDS011;3504;52.616;13.238;2023-07-08T19:04:39;5.90;;;3.20;;
6928;SDS011;3504;52.616;13.238;2023-07-08T19:09:40;4.15;;;3.05;;
6928;SDS011;3504;52.616;13.238;2023-07-08T19:14:40;3.78;;;3.13;;
6928;SDS011;3504;52.616;13.238;2023-07-08T19:19:41;5.38;;;3.15;;
6928;SDS011;3504;52.616;13.238;2023-07-08T19:24:41;3.63;;;2.83;;
6928;SDS011;3504;52.616;13.238;2023-07-08T19:29:42;3.22;;;2.92;;
6928;SDS011;3504;52.616;13.238;2023-07-08T19:34:44;6.18;;;3.05;;
6928;SDS011;3504;52.616;13.238;2023-07-08T19:39:47;3.63;;;3.20;;
6928;SDS011;3504;52.616;13.238;2023-07-08T19:44:48;5.93;;;3.67;;
6928;SDS011;3504;52.616;13.238;2023-07-08T19:49:48;4.60;;;3.10;;
6928;SDS011;3504;52.616;13.238;2023-07-08T19:54:49;7.97;;;3.45;;
6928;SDS011;3504;52.616;13.238;2023-07-08T19:59:49;7.85;;;3.53;;
6928;SDS011;3504;52.616;13.238;2023-07-08T20:04:50;4.63;;;3.40;;
6928;SDS011;3504;52.616;13.238;2023-07-08T20:09:50;5.03;;;2.90;;
6928;SDS011;3504;52.616;13.238;2023-07-08T20:14:51;3.03;;;2.70;;
6928;SDS011;3504;52.616;13.238;2023-07-08T20:19:53;3.45;;;3.10;;
6928;SDS011;3504;52.616;13.238;2023-07-08T20:24:54;3.30;;;2.67;;
6928;SDS011;3504;52.616;13.238;2023-07-08T20:29:55;3.08;;;2.65;;
6928;SDS011;3504;52.616;13.238;2023-07-08T20:34:55;3.40;;;2.88;;
6928;SDS011;3504;52.616;13.238;2023-07-08T20:39:56;6.00;;;3.35;;
6928;SDS011;3504;52.616;13.238;2023-07-08T20:44:56;5.30;;;3.45;;
6928;SDS011;3504;52.616;13.238;2023-07-08T20:49:57;6.13;;;3.50;;
6928;SDS011;3504;52.616;13.238;2023-07-08T20:54:57;4.13;;;3.55;;
6928;SDS011;3504;52.616;13.238;2023-07-08T20:59:58;5.65;;;3.85;;
6928;SDS011;3504;52.616;13.238;2023-07-08T21:04:58;6.85;;;3.63;;
6928;SDS011;3504;52.616;13.238;2023-07-08T21:10:00;8.45;;;4.82;;
6928;SDS011;3504;52.616;13.238;2023-07-08T21:15:00;4.47;;;4.03;;
6928;SDS011;3504;52.616;13.238;2023-07-08T21:20:00;5.60;;;4.10;;
6928;SDS011;3504;52.616;13.238;2023-07-08T21:25:01;4.75;;;4.10;;
6928;SDS011;3504;52.616;13.238;2023-07-08T21:30:02;5.60;;;3.60;;
6928;SDS011;3504;52.616;13.238;2023-07-08T21:35:10;4.32;;;3.92;;
6928;SDS011;3504;52.616;13.238;2023-07-08T21:40:21;6.60;;;4.65;;
6928;SDS011;3504;52.616;13.238;2023-07-08T21:45:38;3.97;;;3.58;;
6928;SDS011;3504;52.616;13.238;2023-07-08T21:50:41;4.78;;;3.45;;
6928;SDS011;3504;52.616;13.238;2023-07-08T21:55:52;5.65;;;4.20;;
6928;SDS011;3504;52.616;13.238;2023-07-08T22:00:53;5.88;;;3.85;;
6928;SDS011;3504;52.616;13.238;2023-07-08T22:05:55;6.15;;;4.25;;
6928;SDS011;3504;52.616;13.238;2023-07-08T22:10:58;4.65;;;3.50;;
6928;SDS011;3504;52.616;13.238;2023-07-08T22:16:04;6.70;;;4.28;;
6928;SDS011;3504;52.616;13.238;2023-07-08T22:21:16;4.60;;;4.20;;
6928;SDS011;3504;52.616;13.238;2023-07-08T22:26:30;4.90;;;3.55;;
6928;SDS011;3504;52.616;13.238;2023-07-08T22:31:36;6.50;;;3.97;;
6928;SDS011;3504;52.616;13.238;2023-07-08T22:36:39;6.93;;;4.15;;
6928;SDS011;3504;52.616;13.238;2023-07-08T22:41:44;5.70;;;3.97;;
6928;SDS011;3504;52.616;13.238;2023-07-08T22:46:51;5.03;;;4.20;;
6928;SDS011;3504;52.616;13.238;2023-07-08T22:51:53;4.72;;;3.67;;
6928;SDS011;3504;52.616;13.238;2023-07-08T22:56:56;4.63;;;4.22;;
6928;SDS011;3504;52.616;13.238;2023-07-08T23:01:57;4.65;;;4.00;;
6928;SDS011;3504;52.616;13.238;2023-07-08T23:06:57;5.07;;;4.03;;
6928;SDS011;3504;52.616;13.238;2023-07-08T23:11:58;4.55;;;4.15;;
6928;SDS011;3504;52.616;13.238;2023-07-08T23:16:58;4.63;;;4.07;;
6928;SDS011;3504;52.616;13.238;2023-07-08T23:21:59;6.50;;;4.60;;
6928;SDS011;3504;52.616;13.238;2023-07-08T23:26:59;6.38;;;4.40;;
6928;SDS011;3504;52.616;13.238;2023-07-08T23:32:00;7.53;;;4.43;;
6928;SDS011;3504;52.616;13.238;2023-07-08T23:37:00;6.25;;;4.78;;
6928;SDS011;3504;52.616;13.238;2023-07-08T23:42:02;7.38;;;5.07;;
6928;SDS011;3504;52.616;13.238;2023-07-08T23:47:03;5.63;;;5.03;;
6928;SDS011;3504;52.616;13.238;2023-07-08T23:52:04;7.65;;;4.53;;
6928;SDS011;3504;52.616;13.238;2023-07-08T23:57:06;5.22;;;4.38;;
